Time;durP1;ratioP1;P1;durP2;ratioP2;P2;SDS_P1;SDS_P2;PMS_P1;PMS_P2;Temp;Humidity;BMP_temperature;BMP_pressure;BME280_temperature;BME280_humidity;BME280_pressure;Samples;Min_cycle;Max_cycle;Signal;HPM_P1;HPM_P2
2023/01/17 00:02:31;;;;;;;;;;;2.70;99.90;;;;;;4733686;30;20497;-91
2023/01/17 00:14:32;;;;;;;;;;;4.60;99.90;;;;;;4719876;30;19979;-89
2023/01/17 00:17:00;;;;;;;;;;;4.10;99.90;;;;;;4719530;30;20025;-89
2023/01/17 01:34:30;;;;;;;;;;;3.30;99.90;;;;;;4701214;30;19995;-88
2023/01/17 01:36:56;;;;;;;;;;;4.90;99.90;;;;;;4701591;30;20035;-91
2023/01/17 01:39:23;;;;;;;;;;;4.20;99.90;;;;;;4715915;30;20029;-89
2023/01/17 01:41:49;;;;;;;;;;;3.40;99.90;;;;;;4700881;30;20037;-87
2023/01/17 01:44:33;;;;;;;;;;;4.40;99.90;;;;;;4701221;30;20364;-89
2023/01/17 01:46:59;;;;;;;;;;;4.40;99.90;;;;;;4701102;30;20074;-88
2023/01/17 01:49:27;;;;;;;;;;;4.50;99.90;;;;;;4700932;30;20022;-89
2023/01/17 01:51:54;;;;;;;;;;;4.40;99.90;;;;;;4747122;30;20020;-88
2023/01/17 01:54:27;;;;;;;;;;;4.20;99.90;;;;;;4770424;30;19985;-89
2023/01/17 01:56:53;;;;;;;;;;;4.10;99.90;;;;;;4754448;30;20055;-89
2023/01/17 01:59:19;;;;;;;;;;;4.50;99.90;;;;;;4754647;30;19984;-89
2023/01/17 02:01:46;;;;;;;;;;;4.50;99.90;;;;;;4754193;30;20009;-88
2023/01/17 02:04:12;;;;;;;;;;;3.80;99.90;;;;;;4754034;30;20423;-89
2023/01/17 02:06:40;;;;;;;;;;;4.10;99.90;;;;;;4754674;30;19978;-89
2023/01/17 02:09:06;;;;;;;;;;;4.90;99.90;;;;;;4770199;30;20069;-88
2023/01/17 02:11:33;;;;;;;;;;;5.20;99.90;;;;;;4783443;29;20503;-89
2023/01/17 02:14:01;;;;;;;;;;;4.00;99.90;;;;;;4784119;30;20338;-90
2023/01/17 02:16:59;;;;;;;;;;;4.30;99.90;;;;;;4753986;30;20047;-90
2023/01/17 02:19:36;;;;;;;;;;;4.50;99.90;;;;;;4753907;30;19993;-89
2023/01/17 02:22:26;;;;;;;;;;;4.20;99.90;;;;;;4754447;30;20002;-89
2023/01/17 02:25:02;;;;;;;;;;;4.30;99.90;;;;;;4717598;30;20123;-90
2023/01/17 02:27:39;;;;;;;;;;;4.30;99.90;;;;;;4717371;30;19982;-89
2023/01/17 02:30:22;;;;;;;;;;;5.40;99.90;;;;;;4726645;30;19975;-89
2023/01/17 02:33:04;;;;;;;;;;;4.30;99.90;;;;;;4700838;30;19986;-89
2023/01/17 02:35:47;;;;;;;;;;;4.20;99.90;;;;;;4685956;30;20404;-89
2023/01/17 02:38:30;;;;;;;;;;;4.30;99.90;;;;;;4700501;30;20077;-89
2023/01/17 02:47:53;;;;;;;;;;;4.40;99.90;;;;;;4734555;30;19993;-90
2023/01/17 02:50:20;;;;;;;;;;;4.40;99.90;;;;;;4721396;30;19963;-88
2023/01/17 02:53:04;;;;;;;;;;;4.80;99.90;;;;;;4721494;30;20072;-88
2023/01/17 02:55:37;;;;;;;;;;;4.60;99.90;;;;;;4721623;30;19977;-88
2023/01/17 02:58:12;;;;;;;;;;;5.10;99.90;;;;;;4734900;30;19995;-88
2023/01/17 03:00:50;;;;;;;;;;;4.40;99.90;;;;;;4735825;30;19978;-88
2023/01/17 03:03:16;;;;;;;;;;;4.30;99.90;;;;;;4756848;30;20374;-88
2023/01/17 03:05:58;;;;;;;;;;;3.10;99.90;;;;;;4757234;30;19978;-88
2023/01/17 03:08:26;;;;;;;;;;;4.10;99.90;;;;;;4773238;30;20361;-88
2023/01/17 03:10:52;;;;;;;;;;;3.30;99.90;;;;;;4757215;30;19978;-88
2023/01/17 03:13:18;;;;;;;;;;;4.00;99.90;;;;;;4773256;30;19986;-87
2023/01/17 03:15:44;;;;;;;;;;;3.60;99.90;;;;;;4757043;30;20062;-88
2023/01/17 03:18:11;;;;;;;;;;;4.00;99.90;;;;;;4756447;30;19997;-88
2023/01/17 03:20:37;;;;;;;;;;;4.10;99.90;;;;;;4755292;30;19992;-89
2023/01/17 03:23:03;;;;;;;;;;;3.60;99.90;;;;;;4739458;30;19977;-88
2023/01/17 03:25:28;;;;;;;;;;;3.80;99.90;;;;;;4753104;30;20001;-88
2023/01/17 03:27:54;;;;;;;;;;;4.80;99.90;;;;;;4742383;30;20361;-89
2023/01/17 03:30:21;;;;;;;;;;;4.30;99.90;;;;;;4772876;30;19982;-88
2023/01/17 03:32:48;;;;;;;;;;;4.50;99.90;;;;;;4756940;30;20463;-89
2023/01/17 03:35:13;;;;;;;;;;;4.50;99.90;;;;;;4756600;30;19985;-89
2023/01/17 03:37:39;;;;;;;;;;;4.40;99.90;;;;;;4772539;30;20389;-84
2023/01/17 03:40:05;;;;;;;;;;;4.10;99.90;;;;;;4755669;30;20024;-86
2023/01/17 03:42:31;;;;;;;;;;;4.00;99.90;;;;;;4786114;29;19978;-86
2023/01/17 03:44:59;;;;;;;;;;;4.40;99.90;;;;;;4772793;30;19982;-86
2023/01/17 03:47:24;;;;;;;;;;;4.20;99.90;;;;;;4756484;30;19985;-85
2023/01/17 03:49:50;;;;;;;;;;;5.40;99.90;;;;;;4772229;30;19973;-85
2023/01/17 03:52:16;;;;;;;;;;;4.10;99.90;;;;;;4785707;30;19978;-86
2023/01/17 03:54:41;;;;;;;;;;;5.00;99.90;;;;;;4756120;30;19978;-86
2023/01/17 03:57:07;;;;;;;;;;;4.10;99.90;;;;;;4772034;30;19993;-86
2023/01/17 03:59:33;;;;;;;;;;;5.10;99.90;;;;;;4772545;30;19982;-85
2023/01/17 04:01:59;;;;;;;;;;;4.40;99.90;;;;;;4753091;30;20007;-85
2023/01/17 04:04:24;;;;;;;;;;;3.90;99.90;;;;;;4755407;30;20348;-85
2023/01/17 04:06:50;;;;;;;;;;;3.90;99.90;;;;;;4756005;30;19978;-86
2023/01/17 04:09:15;;;;;;;;;;;4.50;99.90;;;;;;4756297;30;20432;-86
2023/01/17 04:11:41;;;;;;;;;;;3.80;99.90;;;;;;4772014;30;20358;-85
2023/01/17 04:14:07;;;;;;;;;;;3.10;99.90;;;;;;4772078;30;20020;-85
2023/01/17 04:16:32;;;;;;;;;;;4.40;99.90;;;;;;4785875;30;20088;-86
2023/01/17 04:18:58;;;;;;;;;;;3.60;99.90;;;;;;4771443;30;19977;-84
2023/01/17 04:21:24;;;;;;;;;;;3.60;99.90;;;;;;4741397;30;19974;-86
2023/01/17 04:23:49;;;;;;;;;;;2.60;99.90;;;;;;4755972;30;20022;-84
2023/01/17 04:26:15;;;;;;;;;;;3.80;99.90;;;;;;4755744;30;19980;-85
2023/01/17 04:28:41;;;;;;;;;;;5.00;99.90;;;;;;4755895;30;19974;-86
2023/01/17 04:31:06;;;;;;;;;;;3.60;99.90;;;;;;4756066;30;20016;-84
2023/01/17 04:33:32;;;;;;;;;;;3.90;99.90;;;;;;4784881;29;20364;-86
2023/01/17 04:35:58;;;;;;;;;;;4.30;99.90;;;;;;4755748;30;19978;-85
2023/01/17 04:38:23;;;;;;;;;;;2.50;99.90;;;;;;4771577;30;19980;-87
2023/01/17 04:40:49;;;;;;;;;;;4.20;99.90;;;;;;4771810;30;20340;-86
2023/01/17 04:43:16;;;;;;;;;;;2.80;99.90;;;;;;4771825;30;20316;-87
2023/01/17 04:45:41;;;;;;;;;;;4.10;99.90;;;;;;4755132;30;19973;-87
2023/01/17 04:48:08;;;;;;;;;;;3.20;99.90;;;;;;4771521;30;20001;-88
2023/01/17 04:50:34;;;;;;;;;;;2.30;99.90;;;;;;4755135;30;19986;-87
2023/01/17 04:53:00;;;;;;;;;;;2.60;99.90;;;;;;4771644;30;19975;-88
2023/01/17 04:55:25;;;;;;;;;;;3.00;99.90;;;;;;4755548;30;20386;-88
2023/01/17 04:57:51;;;;;;;;;;;2.90;99.90;;;;;;4755466;30;20004;-88
2023/01/17 05:00:17;;;;;;;;;;;3.80;99.90;;;;;;4754808;30;20028;-90
2023/01/17 05:02:43;;;;;;;;;;;3.00;99.90;;;;;;4771324;30;20048;-88
2023/01/17 05:05:09;;;;;;;;;;;2.50;99.90;;;;;;4755149;30;20398;-88
2023/01/17 05:07:35;;;;;;;;;;;2.90;99.90;;;;;;4754295;30;19977;-89
2023/01/17 05:10:00;;;;;;;;;;;3.00;99.90;;;;;;4755046;30;20442;-89
2023/01/17 05:12:27;;;;;;;;;;;3.00;99.90;;;;;;4771346;30;20031;-87
2023/01/17 05:14:52;;;;;;;;;;;2.60;99.90;;;;;;4755009;30;20027;-89
2023/01/17 05:17:18;;;;;;;;;;;3.80;99.90;;;;;;4784905;30;20045;-88
2023/01/17 05:19:44;;;;;;;;;;;3.20;99.90;;;;;;4771467;30;19982;-89
2023/01/17 05:22:13;;;;;;;;;;;3.20;99.90;;;;;;4784755;30;20001;-88
2023/01/17 05:24:43;;;;;;;;;;;2.70;99.90;;;;;;4755395;30;19985;-87
2023/01/17 05:27:09;;;;;;;;;;;3.30;99.90;;;;;;4770107;30;20008;-88
2023/01/17 05:29:34;;;;;;;;;;;2.00;99.90;;;;;;4754736;30;19980;-87
2023/01/17 05:32:00;;;;;;;;;;;3.50;99.90;;;;;;4770582;30;19978;-87
2023/01/17 05:34:25;;;;;;;;;;;2.70;99.90;;;;;;4754902;30;20189;-87
2023/01/17 05:36:51;;;;;;;;;;;2.90;99.90;;;;;;4754622;30;20111;-86
2023/01/17 05:39:17;;;;;;;;;;;2.30;99.90;;;;;;4754857;30;20323;-86
2023/01/17 05:41:43;;;;;;;;;;;2.70;99.90;;;;;;4754109;30;19974;-89
2023/01/17 05:44:08;;;;;;;;;;;3.80;99.90;;;;;;4770297;30;20405;-87
2023/01/17 05:46:34;;;;;;;;;;;3.50;99.90;;;;;;4784507;30;19997;-87
2023/01/17 05:48:59;;;;;;;;;;;2.50;99.90;;;;;;4783935;30;20083;-87
2023/01/17 05:51:25;;;;;;;;;;;3.60;99.90;;;;;;4770623;30;20052;-88
2023/01/17 05:53:51;;;;;;;;;;;3.00;99.90;;;;;;4754366;30;19932;-87
2023/01/17 05:56:16;;;;;;;;;;;2.30;99.90;;;;;;4752822;30;20088;-86
2023/01/17 05:58:42;;;;;;;;;;;3.20;99.90;;;;;;4753035;30;20032;-87
2023/01/17 06:01:07;;;;;;;;;;;1.40;99.90;;;;;;4754470;30;20338;-87
2023/01/17 06:03:33;;;;;;;;;;;2.30;99.90;;;;;;4770102;30;20002;-88
2023/01/17 06:05:59;;;;;;;;;;;3.30;99.90;;;;;;4754208;30;20032;-87
2023/01/17 06:08:24;;;;;;;;;;;2.80;99.90;;;;;;4754528;30;19985;-87
2023/01/17 06:10:50;;;;;;;;;;;1.90;99.90;;;;;;4753815;30;19995;-87
2023/01/17 06:13:19;;;;;;;;;;;2.80;99.90;;;;;;4783715;29;19982;-87
2023/01/17 06:15:45;;;;;;;;;;;2.10;99.90;;;;;;4770253;30;19978;-85
2023/01/17 06:18:12;;;;;;;;;;;1.70;99.90;;;;;;4753737;30;19990;-87
2023/01/17 06:20:38;;;;;;;;;;;0.90;99.90;;;;;;4754228;30;20339;-87
2023/01/17 06:23:04;;;;;;;;;;;2.10;99.90;;;;;;4770217;30;19978;-88
2023/01/17 06:25:37;;;;;;;;;;;1.20;99.90;;;;;;4769711;30;19978;-87
2023/01/17 06:28:03;;;;;;;;;;;1.60;99.90;;;;;;4769955;30;20001;-86
2023/01/17 06:30:28;;;;;;;;;;;1.50;99.90;;;;;;4754283;30;20338;-87
2023/01/17 06:32:55;;;;;;;;;;;1.40;99.90;;;;;;4754065;30;20072;-87
2023/01/17 06:35:21;;;;;;;;;;;1.40;99.90;;;;;;4769794;30;19978;-87
2023/01/17 06:37:54;;;;;;;;;;;2.60;99.90;;;;;;4769554;30;20004;-88
2023/01/17 06:40:23;;;;;;;;;;;1.30;99.90;;;;;;4754042;30;19986;-88
2023/01/17 06:42:49;;;;;;;;;;;2.10;99.90;;;;;;4753855;30;20035;-88
2023/01/17 06:45:14;;;;;;;;;;;1.50;99.90;;;;;;4770091;30;19978;-89
2023/01/17 06:47:40;;;;;;;;;;;1.20;99.90;;;;;;4753527;30;19971;-88
2023/01/17 06:50:06;;;;;;;;;;;1.10;99.90;;;;;;4753807;30;20025;-88
2023/01/17 06:52:32;;;;;;;;;;;1.10;99.90;;;;;;4753716;30;20342;-88
2023/01/17 06:54:58;;;;;;;;;;;1.10;99.90;;;;;;4753598;30;19970;-87
2023/01/17 06:57:23;;;;;;;;;;;2.10;99.90;;;;;;4769709;30;20069;-87
2023/01/17 06:59:49;;;;;;;;;;;1.90;99.90;;;;;;4783661;30;20340;-86
2023/01/17 07:02:14;;;;;;;;;;;1.00;99.90;;;;;;4769392;29;19995;-88
2023/01/17 07:04:40;;;;;;;;;;;1.00;99.90;;;;;;4769409;30;19982;-87
2023/01/17 07:07:06;;;;;;;;;;;1.00;99.90;;;;;;4753289;30;20030;-88
2023/01/17 07:09:31;;;;;;;;;;;1.00;99.90;;;;;;4753664;30;19978;-87
2023/01/17 07:12:00;;;;;;;;;;;1.40;99.90;;;;;;4769738;30;19974;-88
2023/01/17 07:14:26;;;;;;;;;;;1.70;99.90;;;;;;4753853;30;19975;-87
2023/01/17 07:16:52;;;;;;;;;;;0.90;99.90;;;;;;4753296;30;20422;-87
2023/01/17 07:19:17;;;;;;;;;;;0.30;99.90;;;;;;4769769;30;19988;-87
2023/01/17 07:21:43;;;;;;;;;;;1.50;99.90;;;;;;4769736;30;20058;-89
2023/01/17 07:24:09;;;;;;;;;;;0.90;99.90;;;;;;4769202;30;19985;-88
2023/01/17 07:26:36;;;;;;;;;;;1.00;99.90;;;;;;4753692;30;19982;-86
2023/01/17 07:29:03;;;;;;;;;;;1.00;99.90;;;;;;4753661;30;19993;-88
2023/01/17 07:31:29;;;;;;;;;;;1.80;99.90;;;;;;4756264;30;19985;-88
2023/01/17 07:33:54;;;;;;;;;;;2.30;99.90;;;;;;4756495;30;19978;-86
2023/01/17 07:36:20;;;;;;;;;;;1.40;99.90;;;;;;4756449;30;20405;-88
2023/01/17 07:38:45;;;;;;;;;;;1.00;99.90;;;;;;4756461;30;19982;-89
2023/01/17 07:41:11;;;;;;;;;;;2.30;99.90;;;;;;4772602;30;19982;-88
2023/01/17 07:43:37;;;;;;;;;;;1.00;99.90;;;;;;4772583;30;20022;-87
2023/01/17 07:46:04;;;;;;;;;;;1.10;99.90;;;;;;4756542;30;19974;-85
2023/01/17 07:48:30;;;;;;;;;;;1.10;99.90;;;;;;4772473;30;19974;-86
2023/01/17 07:50:56;;;;;;;;;;;1.90;99.90;;;;;;4772847;30;19978;-89
2023/01/17 07:53:23;;;;;;;;;;;2.80;99.90;;;;;;4756748;30;19976;-88
2023/01/17 07:55:56;;;;;;;;;;;1.40;99.90;;;;;;4756656;30;20344;-89
2023/01/17 07:58:24;;;;;;;;;;;2.80;99.90;;;;;;4756231;30;19997;-88
2023/01/17 08:00:50;;;;;;;;;;;1.40;99.90;;;;;;4755539;30;19977;-88
2023/01/17 08:03:16;;;;;;;;;;;1.10;99.90;;;;;;4788235;30;20009;-91
2023/01/17 08:05:43;;;;;;;;;;;0.30;99.90;;;;;;4772938;30;20036;-84
2023/01/17 08:08:11;;;;;;;;;;;1.30;99.90;;;;;;4757518;30;19974;-90
2023/01/17 08:10:36;;;;;;;;;;;1.10;99.90;;;;;;4771952;30;19978;-88
2023/01/17 08:13:02;;;;;;;;;;;2.60;99.90;;;;;;4756067;30;19972;-87
2023/01/17 08:15:28;;;;;;;;;;;1.50;99.90;;;;;;4772143;30;20077;-88
2023/01/17 08:17:53;;;;;;;;;;;1.30;99.90;;;;;;4772186;30;19993;-86
2023/01/17 08:20:20;;;;;;;;;;;2.50;99.90;;;;;;4755820;30;19965;-87
2023/01/17 08:22:45;;;;;;;;;;;1.40;99.90;;;;;;4772080;30;20378;-87
2023/01/17 08:25:11;;;;;;;;;;;1.20;99.90;;;;;;4756479;30;19978;-87
2023/01/17 08:27:37;;;;;;;;;;;1.60;99.90;;;;;;4771528;30;20433;-87
2023/01/17 08:30:03;;;;;;;;;;;1.80;99.90;;;;;;4757203;30;19985;-86
2023/01/17 08:32:29;;;;;;;;;;;1.50;99.90;;;;;;4785634;30;19978;-86
2023/01/17 08:34:56;;;;;;;;;;;2.50;99.90;;;;;;4755465;30;19986;-86
2023/01/17 08:37:21;;;;;;;;;;;2.90;99.90;;;;;;4771747;30;20525;-86
2023/01/17 08:39:47;;;;;;;;;;;1.50;99.90;;;;;;4771763;30;19978;-87
2023/01/17 08:42:13;;;;;;;;;;;2.00;99.90;;;;;;4755881;30;19977;-86
2023/01/17 08:44:38;;;;;;;;;;;1.50;99.90;;;;;;4771963;30;19974;-86
2023/01/17 08:47:04;;;;;;;;;;;1.50;99.90;;;;;;4771845;30;20370;-87
2023/01/17 08:49:30;;;;;;;;;;;1.90;99.90;;;;;;4755848;30;19984;-86
2023/01/17 08:52:04;;;;;;;;;;;1.50;99.90;;;;;;4755680;30;19969;-92
2023/01/17 08:54:29;;;;;;;;;;;1.70;99.90;;;;;;4755432;30;19976;-86
2023/01/17 08:56:55;;;;;;;;;;;2.60;99.90;;;;;;4755453;30;20409;-86
2023/01/17 08:59:21;;;;;;;;;;;1.30;99.90;;;;;;4771507;30;19984;-85
2023/01/17 09:01:46;;;;;;;;;;;2.00;99.90;;;;;;4771399;30;20350;-85
2023/01/17 09:04:12;;;;;;;;;;;2.00;99.90;;;;;;4755114;30;20032;-86
2023/01/17 09:06:41;;;;;;;;;;;1.80;99.90;;;;;;4771347;30;20026;-86
2023/01/17 09:09:09;;;;;;;;;;;1.90;99.90;;;;;;4755210;30;20105;-86
2023/01/17 09:11:35;;;;;;;;;;;2.00;99.90;;;;;;4771077;30;20414;-86
2023/01/17 09:14:01;;;;;;;;;;;1.80;99.90;;;;;;4771173;30;20021;-87
2023/01/17 09:16:27;;;;;;;;;;;1.30;99.90;;;;;;4754867;30;20462;-86
2023/01/17 09:18:54;;;;;;;;;;;2.10;99.90;;;;;;4740293;30;20314;-86
2023/01/17 09:21:19;;;;;;;;;;;1.90;99.90;;;;;;4755163;30;19974;-86
2023/01/17 09:23:45;;;;;;;;;;;1.90;99.90;;;;;;4754772;30;20344;-86
2023/01/17 09:26:19;;;;;;;;;;;3.30;99.90;;;;;;4771022;30;20454;-86
2023/01/17 09:28:44;;;;;;;;;;;1.20;99.90;;;;;;4754830;30;19989;-86
2023/01/17 09:31:10;;;;;;;;;;;3.20;99.90;;;;;;4754809;30;19978;-86
2023/01/17 09:33:36;;;;;;;;;;;2.10;99.90;;;;;;4754340;29;20092;-86
2023/01/17 09:36:04;;;;;;;;;;;2.20;99.90;;;;;;4770680;30;19984;-86
2023/01/17 09:38:30;;;;;;;;;;;2.20;99.90;;;;;;4754600;30;19978;-86
2023/01/17 09:40:56;;;;;;;;;;;3.00;99.90;;;;;;4755157;30;19985;-86
2023/01/17 09:43:40;;;;;;;;;;;2.90;99.90;;;;;;4754729;30;20339;-86
2023/01/17 09:46:12;;;;;;;;;;;2.30;99.90;;;;;;4770585;30;20057;-86
2023/01/17 09:48:38;;;;;;;;;;;2.40;99.90;;;;;;4770547;30;19978;-86
2023/01/17 09:51:06;;;;;;;;;;;3.50;99.90;;;;;;4754340;30;19978;-86
2023/01/17 09:53:33;;;;;;;;;;;2.90;99.90;;;;;;4753931;30;19978;-87
2023/01/17 09:56:03;;;;;;;;;;;4.00;99.90;;;;;;4770357;30;19985;-86
2023/01/17 09:58:33;;;;;;;;;;;3.00;99.90;;;;;;4770238;30;20507;-86
2023/01/17 10:01:17;;;;;;;;;;;3.40;99.90;;;;;;4754345;30;19978;-86
2023/01/17 10:03:56;;;;;;;;;;;3.00;99.90;;;;;;4753958;30;20002;-86
2023/01/17 10:06:40;;;;;;;;;;;3.00;99.90;;;;;;4754106;30;19985;-86
2023/01/17 10:09:25;;;;;;;;;;;3.10;99.90;;;;;;4747754;30;20353;-85
2023/01/17 10:12:09;;;;;;;;;;;3.10;99.90;;;;;;4754366;30;19978;-90
2023/01/17 10:14:37;;;;;;;;;;;3.60;99.90;;;;;;4754447;30;19982;-84
2023/01/17 10:17:09;;;;;;;;;;;2.90;99.90;;;;;;4770249;30;20049;-85
2023/01/17 10:19:39;;;;;;;;;;;2.90;99.90;;;;;;4754125;30;19978;-85
2023/01/17 10:22:17;;;;;;;;;;;3.10;99.90;;;;;;4769351;30;20454;-83
2023/01/17 10:25:02;;;;;;;;;;;3.00;99.90;;;;;;4770274;30;20014;-85
2023/01/17 10:27:31;;;;;;;;;;;3.00;99.90;;;;;;4770031;30;19984;-84
2023/01/17 10:29:57;;;;;;;;;;;3.20;99.90;;;;;;4754486;30;20029;-84
2023/01/17 10:32:24;;;;;;;;;;;4.10;99.90;;;;;;4770004;30;20057;-88
2023/01/17 10:34:51;;;;;;;;;;;3.30;99.90;;;;;;4763444;30;20016;-85
2023/01/17 10:37:21;;;;;;;;;;;3.40;99.90;;;;;;4769228;30;20035;-82
2023/01/17 10:39:47;;;;;;;;;;;4.60;99.90;;;;;;4770151;30;19982;-84
2023/01/17 10:42:18;;;;;;;;;;;3.20;99.90;;;;;;4755141;30;20345;-85
2023/01/17 10:45:03;;;;;;;;;;;4.70;99.90;;;;;;4759617;30;20472;-87
2023/01/17 10:47:31;;;;;;;;;;;3.50;99.90;;;;;;4766331;30;19974;-84
2023/01/17 10:49:58;;;;;;;;;;;2.90;99.90;;;;;;4754011;30;19926;-83
2023/01/17 10:52:44;;;;;;;;;;;4.50;99.90;;;;;;4770047;30;20393;-85
2023/01/17 10:55:17;;;;;;;;;;;2.50;99.90;;;;;;4769609;30;19985;-84
2023/01/17 10:57:44;;;;;;;;;;;3.90;99.90;;;;;;4753685;30;20093;-84
2023/01/17 11:00:20;;;;;;;;;;;3.10;99.90;;;;;;4769429;30;19978;-83
2023/01/17 11:02:48;;;;;;;;;;;3.10;99.90;;;;;;4769632;30;20073;-83
2023/01/17 11:05:24;;;;;;;;;;;3.10;99.90;;;;;;4770652;30;19985;-87
2023/01/17 11:08:02;;;;;;;;;;;3.00;99.90;;;;;;4756396;30;20478;-84
2023/01/17 11:10:55;;;;;;;;;;;3.00;99.90;;;;;;4757087;30;20026;-84
2023/01/17 11:13:33;;;;;;;;;;;3.00;99.90;;;;;;4752687;30;19981;-82
2023/01/17 11:16:00;;;;;;;;;;;3.10;99.90;;;;;;4752486;30;19988;-84
2023/01/17 11:18:27;;;;;;;;;;;3.80;99.90;;;;;;4751001;30;20537;-83
2023/01/17 11:21:05;;;;;;;;;;;4.00;99.90;;;;;;4752463;30;20304;-84
2023/01/17 11:23:32;;;;;;;;;;;3.80;99.90;;;;;;4739135;30;19975;-83
2023/01/17 11:26:01;;;;;;;;;;;4.30;99.90;;;;;;4752955;30;20084;-85
2023/01/17 11:28:31;;;;;;;;;;;4.40;99.90;;;;;;4753151;30;19977;-84
2023/01/17 11:30:57;;;;;;;;;;;4.80;99.90;;;;;;4738697;30;19978;-83
2023/01/17 11:33:54;;;;;;;;;;;3.40;99.90;;;;;;4753013;30;20378;-83
2023/01/17 11:36:19;;;;;;;;;;;3.80;99.90;;;;;;4752260;30;19975;-83
2023/01/17 11:38:52;;;;;;;;;;;4.20;99.90;;;;;;4752982;30;20502;-82
2023/01/17 11:41:19;;;;;;;;;;;4.60;99.90;;;;;;4752958;30;20846;-83
2023/01/17 11:43:54;;;;;;;;;;;4.00;99.90;;;;;;4752876;30;19974;-82
2023/01/17 11:46:21;;;;;;;;;;;4.70;99.90;;;;;;4752859;30;20432;-84
2023/01/17 11:48:53;;;;;;;;;;;3.30;99.90;;;;;;4752507;30;20062;-85
2023/01/17 11:51:22;;;;;;;;;;;4.10;99.90;;;;;;4770839;30;20363;-83
2023/01/17 11:53:47;;;;;;;;;;;4.10;99.90;;;;;;4772404;30;19984;-83
2023/01/17 11:56:35;;;;;;;;;;;5.10;99.90;;;;;;4772394;30;19982;-83
2023/01/17 11:59:12;;;;;;;;;;;4.20;99.90;;;;;;4756274;30;19982;-84
2023/01/17 12:01:45;;;;;;;;;;;4.30;99.90;;;;;;4772140;30;20056;-85
2023/01/17 12:04:11;;;;;;;;;;;4.30;99.90;;;;;;4771260;30;20424;-87
2023/01/17 12:06:43;;;;;;;;;;;4.20;99.90;;;;;;4756138;30;20028;-85
2023/01/17 12:09:36;;;;;;;;;;;4.20;99.90;;;;;;4772186;30;19991;-84
2023/01/17 12:16:29;;;;;;;4.55;0.40;;;5.10;99.90;;;;;;5122975;27;20758;-83
2023/01/17 12:19:05;;;;;;;3.03;0.30;;;;;;;;;;5087675;28;20481;-83
2023/01/17 12:21:40;;;;;;;4.57;0.38;;;5.40;99.90;;;;;;5088329;28;20075;-85
2023/01/17 12:24:31;;;;;;;4.13;0.40;;;7.30;99.90;;;;;;5077940;28;20093;-84
2023/01/17 12:27:19;;;;;;;1.85;0.40;;;5.30;99.90;;;;;;5088452;28;20105;-87
2023/01/17 12:30:03;;;;;;;2.35;0.30;;;5.20;99.90;;;;;;5088236;28;20052;-86
2023/01/17 12:32:39;;;;;;;2.53;0.57;;;5.20;99.90;;;;;;5088623;28;20108;-86
2023/01/17 12:35:12;;;;;;;2.70;0.30;;;6.50;99.90;;;;;;5088581;28;20151;-85
2023/01/17 12:37:42;;;;;;;1.55;0.40;;;5.20;99.90;;;;;;5089000;28;20074;-86
2023/01/17 12:40:29;;;;;;;3.08;0.28;;;4.90;99.90;;;;;;5088945;28;20036;-85
2023/01/17 12:43:10;;;;;;;2.17;0.40;;;5.30;99.90;;;;;;5089702;28;20044;-85
2023/01/17 12:45:41;;;;;;;0.73;0.32;;;6.00;99.90;;;;;;5088142;28;20052;-85
2023/01/17 12:48:14;;;;;;;0.95;0.22;;;5.20;99.90;;;;;;5088783;28;20036;-85
2023/01/17 12:50:51;;;;;;;0.30;0.30;;;6.00;99.90;;;;;;5089754;28;20044;-84
2023/01/17 12:53:26;;;;;;;2.20;0.30;;;5.30;99.90;;;;;;5071265;28;20048;-84
2023/01/17 12:55:59;;;;;;;0.35;0.20;;;6.90;99.90;;;;;;5089689;28;20426;-85
2023/01/17 12:58:29;;;;;;;0.80;0.35;;;5.70;99.90;;;;;;5087367;28;20032;-86
2023/01/17 13:01:06;;;;;;;1.40;0.20;;;5.20;99.90;;;;;;5088092;28;20067;-86
2023/01/17 13:03:46;;;;;;;0.90;0.17;;;5.60;99.90;;;;;;5087937;28;20044;-87
2023/01/17 13:06:23;;;;;;;0.75;0.30;;;5.90;99.90;;;;;;5088426;28;20051;-87
2023/01/17 13:08:55;;;;;;;1.58;0.52;;;5.70;99.90;;;;;;5069285;28;20384;-87
2023/01/17 13:11:42;;;;;;;1.17;0.25;;;7.60;99.90;;;;;;5067831;28;20098;-86
2023/01/17 13:14:09;;;;;;;3.95;0.50;;;5.90;99.90;;;;;;5086863;28;20063;-85
2023/01/17 13:16:57;;;;;;;0.95;0.30;;;6.40;99.90;;;;;;5089231;28;20094;-87
2023/01/17 13:19:49;;;;;;;3.50;0.50;;;5.30;99.90;;;;;;5088225;28;20485;-85
2023/01/17 13:22:21;;;;;;;1.52;0.30;;;5.30;99.90;;;;;;5088342;28;20044;-86
2023/01/17 13:25:05;;;;;;;525.53;359.52;;;5.10;99.90;;;;;;5088546;28;20048;-86
2023/01/17 13:27:47;;;;;;;122.40;109.80;;;5.10;99.90;;;;;;5073674;28;20504;-84
